^^
Station Historical Data
 
Daily Summary for November 20, 2017 Units:  English    Metric   Both
« Previous Day
Next Day »
Daily Weekly Monthly Yearly Custom
  Current: High: Low: Average:
Temperature: 44.0 °F 50.5 °F 35.1 °F 41.4 °F
Dew Point: 31.8 °F 32.9 °F 20.6 °F 26.9 °F
Humidity: 62% 68% 42% 56%
Wind Speed: 0.0mph 9.0mph 0.0mph 0.3mph
Wind Gust: 0.0mph 11.0mph - -
WindCalm - - ESE
Pressure: 30.13 in 30.14 in 30.05 in -
Precipitation: 0.00 in      
Historical Graphs
 
 
Tabular Data for November 20, 2017
Time Temperature Dew Point Pressure Wind Wind Speed Wind Gust Humidity Rainfall Rate (Hourly) solar Conditions
00:01 35.2 °F 22.3 °F 30.14 in Calm     59% 0.00 in 0.00 W/m2
00:06 35.4 °F 22.5 °F 30.14 in Calm     59% 0.00 in 0.00 W/m2
00:31 35.5 °F 21.8 °F 30.11 in Calm     57% 0.00 in 0.00 W/m2
00:36 35.5 °F 21.8 °F 30.11 in Calm     57% 0.00 in 0.00 W/m2
00:41 35.4 °F 22.1 °F 30.11 in Calm     58% 0.00 in 0.00 W/m2
00:46 35.4 °F 22.1 °F 30.11 in Calm     58% 0.00 in 0.00 W/m2
00:56 35.1 °F 21.8 °F 30.12 in Calm     58% 0.00 in 0.00 W/m2
01:02 35.2 °F 22.3 °F 30.12 in Calm     59% 0.00 in 0.00 W/m2
01:07 35.3 °F 22.4 °F 30.12 in Calm     59% 0.00 in 0.00 W/m2
01:12 35.5 °F 21.8 °F 30.11 in Calm     57% 0.00 in 0.00 W/m2
01:17 35.8 °F 22.1 °F 30.11 in Calm     57% 0.00 in 0.00 W/m2
01:22 35.9 °F 22.2 °F 30.11 in Calm     57% 0.00 in 0.00 W/m2
01:27 36.1 °F 22.4 °F 30.11 in Calm     57% 0.00 in 0.00 W/m2
01:32 36.2 °F 22.9 °F 30.10 in Calm     58% 0.00 in 0.00 W/m2
01:37 36.1 °F 22.8 °F 30.10 in Calm     58% 0.00 in 0.00 W/m2
01:42 36.2 °F 22.9 °F 30.11 in Calm     58% 0.00 in 0.00 W/m2
01:52 36.5 °F 22.7 °F 30.11 in Calm     57% 0.00 in 0.00 W/m2
01:57 36.9 °F 22.7 °F 30.10 in Calm     56% 0.00 in 0.00 W/m2
02:07 37.1 °F 23.3 °F 30.10 in Calm     57% 0.00 in 0.00 W/m2
02:13 37.1 °F 23.3 °F 30.10 in Calm     57% 0.00 in 0.00 W/m2
02:18 37.0 °F 23.6 °F 30.09 in Calm     58% 0.00 in 0.00 W/m2
02:23 37.0 °F 23.2 °F 30.10 in Calm     57% 0.00 in 0.00 W/m2
02:33 37.3 °F 22.6 °F 30.10 in Calm     55% 0.00 in 0.00 W/m2
02:38 37.4 °F 22.7 °F 30.09 in Calm     55% 0.00 in 0.00 W/m2
02:43 37.4 °F 22.7 °F 30.10 in Calm     55% 0.00 in 0.00 W/m2
02:48 37.4 °F 23.1 °F 30.11 in Calm     56% 0.00 in 0.00 W/m2
03:09 37.1 °F 23.7 °F 30.12 in Calm     58% 0.00 in 0.00 W/m2
03:25 37.1 °F 23.7 °F 30.10 in Calm     58% 0.00 in 0.00 W/m2
03:30 37.3 °F 23.5 °F 30.11 in Calm     57% 0.00 in 0.00 W/m2
03:40 37.6 °F 23.8 °F 30.11 in Calm     57% 0.00 in 0.00 W/m2
03:45 37.8 °F 23.5 °F 30.10 in Calm     56% 0.00 in 0.00 W/m2
03:50 37.9 °F 23.6 °F 30.10 in Calm     56% 0.00 in 0.00 W/m2
03:56 38.2 °F 23.5 °F 30.10 in Calm     55% 0.00 in 0.00 W/m2
04:11 38.7 °F 22.6 °F 30.11 in Calm     52% 0.00 in 0.00 W/m2
04:16 38.8 °F 22.7 °F 30.11 in Calm     52% 0.00 in 0.00 W/m2
04:21 39.0 °F 22.4 °F 30.11 in Calm     51% 0.00 in 0.00 W/m2
04:36 39.2 °F 22.6 °F 30.10 in Calm     51% 0.00 in 0.00 W/m2
04:41 39.2 °F 22.1 °F 30.10 in Calm     50% 0.00 in 0.00 W/m2
04:43 39.3 °F 21.8 °F 30.10 in Calm     49% 0.00 in 0.00 W/m2
04:49 39.5 °F 21.9 °F 30.10 in Calm     49% 0.00 in 0.00 W/m2
04:54 39.5 °F 21.9 °F 30.10 in Calm     49% 0.00 in 0.00 W/m2
04:59 39.7 °F 22.1 °F 30.09 in Calm     49% 0.00 in 0.00 W/m2
05:09 40.2 °F 20.6 °F 30.08 in Calm     45% 0.00 in 0.00 W/m2
05:14 40.4 °F 20.8 °F 30.09 in Calm     45% 0.00 in 0.00 W/m2
05:19 40.4 °F 21.3 °F 30.09 in Calm     46% 0.00 in 0.00 W/m2
05:24 40.5 °F 20.9 °F 30.09 in Calm     45% 0.00 in 0.00 W/m2
05:29 40.5 °F 20.9 °F 30.09 in Calm     45% 0.00 in 0.00 W/m2
05:39 40.5 °F 21.9 °F 30.09 in Calm     47% 0.00 in 0.00 W/m2
05:54 40.0 °F 22.4 °F 30.08 in Calm     49% 0.00 in 0.00 W/m2
05:59 39.8 °F 22.2 °F 30.08 in Calm     49% 0.00 in 0.00 W/m2
06:04 39.7 °F 22.1 °F 30.08 in Calm     49% 0.00 in 0.00 W/m2
06:09 39.6 °F 22.0 °F 30.08 in Calm     49% 0.00 in 0.00 W/m2
06:19 39.5 °F 21.9 °F 30.06 in Calm     49% 0.00 in 0.00 W/m2
06:24 39.5 °F 22.4 °F 30.06 in Calm     50% 0.00 in 0.00 W/m2
06:29 39.4 °F 21.8 °F 30.06 in Calm     49% 0.00 in 0.00 W/m2
06:34 39.3 °F 22.2 °F 30.06 in Calm     50% 0.00 in 0.00 W/m2
06:40 39.2 °F 21.7 °F 30.07 in Calm     49% 0.00 in 0.00 W/m2
06:45 39.1 °F 22.0 °F 30.07 in Calm     50% 0.00 in 0.00 W/m2
06:55 39.0 °F 22.4 °F 30.07 in Calm     51% 0.00 in 0.00 W/m2
07:05 38.6 °F 25.1 °F 30.08 in Calm     58% 0.00 in 0.00 W/m2
07:10 38.2 °F 25.1 °F 30.08 in Calm     59% 0.00 in 0.00 W/m2
07:15 37.6 °F 25.0 °F 30.07 in Calm     60% 0.00 in 0.00 W/m2
07:20 37.4 °F 24.8 °F 30.07 in Calm     60% 0.00 in 0.00 W/m2
07:25 37.7 °F 23.9 °F 30.06 in Calm     57% 0.00 in 0.00 W/m2
07:35 38.1 °F 23.4 °F 30.05 in Calm     55% 0.00 in 7.00 W/m2
07:41 38.3 °F 22.7 °F 30.05 in Calm     53% 0.00 in 11.00 W/m2
07:46 38.6 °F 22.0 °F 30.06 in Calm     51% 0.00 in 14.00 W/m2
07:51 39.1 °F 21.6 °F 30.06 in Calm     49% 0.00 in 19.00 W/m2
08:01 40.0 °F 22.9 °F 30.07 in Calm     50% 0.00 in 33.00 W/m2
08:06 40.1 °F 23.4 °F 30.07 in Calm     51% 0.00 in 37.00 W/m2
08:11 40.1 °F 23.4 °F 30.06 in Calm     51% 0.00 in 47.00 W/m2
08:21 39.9 °F 25.9 °F 30.06 in Calm     57% 0.00 in 65.00 W/m2
08:36 39.0 °F 26.7 °F 30.08 in Calm     61% 0.00 in 81.00 W/m2
08:41 38.8 °F 26.1 °F 30.08 in Calm     60% 0.00 in 91.00 W/m2
08:46 38.7 °F 26.0 °F 30.08 in Calm     60% 0.00 in 97.00 W/m2
08:51 38.8 °F 26.1 °F 30.08 in Calm     60% 0.00 in 95.00 W/m2
08:56 39.0 °F 26.3 °F 30.08 in Calm     60% 0.00 in 163.00 W/m2
09:01 39.2 °F 25.7 °F 30.08 in Calm     58% 0.00 in 163.00 W/m2
09:06 39.5 °F 26.4 °F 30.08 in Calm     59% 0.00 in 165.00 W/m2
09:21 40.7 °F 25.8 °F 30.08 in Calm     55% 0.00 in 232.00 W/m2
09:26 41.2 °F 26.3 °F 30.08 in Calm     55% 0.00 in 246.00 W/m2
09:32 41.8 °F 25.9 °F 30.08 in Calm     53% 0.00 in 179.00 W/m2
09:37 42.3 °F 25.9 °F 30.09 in Calm     52% 0.00 in 176.00 W/m2
09:42 42.8 °F 25.9 °F 30.08 in Calm     51% 0.00 in 160.00 W/m2
09:47 43.2 °F 28.6 °F 30.09 in Calm   1.0 mph 56% 0.00 in 167.00 W/m2
09:52 43.4 °F 28.8 °F 30.09 in Calm     56% 0.00 in 176.00 W/m2
09:57 43.5 °F 29.3 °F 30.09 in Calm     57% 0.00 in 181.00 W/m2
10:02 43.5 °F 29.7 °F 30.08 in Calm     58% 0.00 in 204.00 W/m2
10:07 43.6 °F 29.8 °F 30.09 in Calm     58% 0.00 in 193.00 W/m2
10:12 43.4 °F 30.0 °F 30.09 in Calm   2.0 mph 59% 0.00 in 200.00 W/m2
10:17 43.3 °F 30.0 °F 30.09 in Calm     59% 0.00 in 218.00 W/m2
10:27 43.4 °F 30.5 °F 30.10 in Calm     60% 0.00 in 186.00 W/m2
10:33 43.4 °F 29.6 °F 30.10 in Calm     58% 0.00 in 188.00 W/m2
10:37 43.3 °F 27.8 °F 30.10 in Calm     54% 0.00 in 288.00 W/m2
10:48 43.3 °F 29.1 °F 30.09 in Calm     57% 0.00 in 225.00 W/m2
10:53 43.7 °F 29.9 °F 30.09 in Calm     58% 0.00 in 172.00 W/m2
10:58 44.0 °F 30.6 °F 30.09 in Calm     59% 0.00 in 160.00 W/m2
11:03 44.1 °F 30.7 °F 30.09 in Calm     59% 0.00 in 179.00 W/m2
11:24 44.3 °F 30.9 °F 30.09 in Calm     59% 0.00 in 239.00 W/m2
11:34 44.9 °F 31.0 °F 30.09 in Calm     58% 0.00 in 213.00 W/m2
11:39 45.1 °F 31.2 °F 30.10 in Calm     58% 0.00 in 162.00 W/m2
11:44 45.3 °F 32.2 °F 30.10 in Calm     60% 0.00 in 142.00 W/m2
11:49 45.4 °F 32.3 °F 30.10 in Calm     60% 0.00 in 172.00 W/m2
11:56 45.5 °F 32.4 °F 30.10 in Calm     60% 0.00 in 232.00 W/m2
12:01 45.6 °F 32.9 °F 30.10 in Calm     61% 0.00 in 241.00 W/m2
12:06 45.6 °F 32.5 °F 30.10 in Calm   2.0 mph 60% 0.00 in 227.00 W/m2
12:21 45.2 °F 32.2 °F 30.10 in Calm     60% 0.00 in 193.00 W/m2
12:26 45.2 °F 31.7 °F 30.10 in Calm     59% 0.00 in 199.00 W/m2
12:36 45.0 °F 31.1 °F 30.09 in Calm     58% 0.00 in 274.00 W/m2
12:41 45.2 °F 31.3 °F 30.09 in Calm     58% 0.00 in 251.00 W/m2
12:46 45.3 °F 31.4 °F 30.09 in Calm     58% 0.00 in 209.00 W/m2
12:52 45.4 °F 31.5 °F 30.10 in Calm   3.0 mph 58% 0.00 in 223.00 W/m2
13:07 45.0 °F 32.0 °F 30.10 in Calm     60% 0.00 in 149.00 W/m2
13:12 44.7 °F 31.7 °F 30.10 in NE 1.0 mph 1.0 mph 60% 0.00 in 128.00 W/m2
13:23 43.5 °F 32.2 °F 30.10 in NE 1.0 mph 4.0 mph 64% 0.00 in 111.00 W/m2
13:28 43.5 °F 31.8 °F 30.11 in Calm   3.0 mph 63% 0.00 in 107.00 W/m2
13:38 43.2 °F 31.9 °F 30.11 in Calm     64% 0.00 in 97.00 W/m2
13:43 43.2 °F 31.9 °F 30.12 in Calm     64% 0.00 in 93.00 W/m2
13:48 43.3 °F 32.0 °F 30.12 in NE 2.0 mph 4.0 mph 64% 0.00 in 84.00 W/m2
13:53 43.1 °F 31.4 °F 30.14 in NE 7.0 mph 7.0 mph 63% 0.00 in 81.00 W/m2
13:58 42.4 °F 30.7 °F 30.13 in NE 2.0 mph 7.0 mph 63% 0.00 in 76.00 W/m2
14:03 42.0 °F 30.7 °F 30.13 in NE 3.0 mph 4.0 mph 64% 0.00 in 70.00 W/m2
14:08 41.7 °F 31.2 °F 30.11 in NE 1.0 mph 6.0 mph 66% 0.00 in 67.00 W/m2
14:13 42.0 °F 31.5 °F 30.11 in SSW 4.0 mph 10.0 mph 66% 0.00 in 70.00 W/m2
14:33 43.6 °F 27.1 °F 30.09 in Calm   4.0 mph 52% 0.00 in 76.00 W/m2
14:38 45.2 °F 25.1 °F 30.08 in Calm   5.0 mph 45% 0.00 in 77.00 W/m2
14:54 47.4 °F 28.2 °F 30.07 in Calm   4.0 mph 47% 0.00 in 69.00 W/m2
15:04 46.2 °F 30.5 °F 30.07 in Calm   3.0 mph 54% 0.00 in 77.00 W/m2
15:05 45.9 °F 30.2 °F 30.07 in Calm     54% 0.00 in 83.00 W/m2
15:10 44.9 °F 30.2 °F 30.07 in South 4.0 mph 6.0 mph 56% 0.00 in 105.00 W/m2
15:15 44.1 °F 30.3 °F 30.08 in Calm   6.0 mph 58% 0.00 in 95.00 W/m2
15:21 43.9 °F 30.9 °F 30.08 in Calm     60% 0.00 in 90.00 W/m2
15:26 43.8 °F 31.2 °F 30.08 in Calm     61% 0.00 in 93.00 W/m2
15:36 42.7 °F 31.4 °F 30.08 in Calm     64% 0.00 in 70.00 W/m2
15:41 42.2 °F 31.3 °F 30.08 in Calm     65% 0.00 in 67.00 W/m2
15:51 42.2 °F 31.7 °F 30.07 in Calm     66% 0.00 in 58.00 W/m2
15:56 42.5 °F 32.3 °F 30.08 in Calm   2.0 mph 67% 0.00 in 63.00 W/m2
16:01 42.6 °F 32.4 °F 30.08 in Calm   2.0 mph 67% 0.00 in 54.00 W/m2
16:06 42.7 °F 32.5 °F 30.09 in Calm   4.0 mph 67% 0.00 in 37.00 W/m2
16:16 42.6 °F 32.4 °F 30.10 in Calm     67% 0.00 in 21.00 W/m2
16:31 42.4 °F 32.2 °F 30.11 in Calm     67% 0.00 in 11.00 W/m2
16:37 42.3 °F 32.1 °F 30.12 in Calm     67% 0.00 in 9.00 W/m2
16:42 42.2 °F 32.0 °F 30.12 in Calm     67% 0.00 in 7.00 W/m2
16:52 42.0 °F 32.2 °F 30.10 in Calm     68% 0.00 in 0.00 W/m2
17:02 42.0 °F 30.7 °F 30.10 in Calm     64% 0.00 in 0.00 W/m2
17:07 42.8 °F 28.2 °F 30.10 in Calm   1.0 mph 56% 0.00 in 0.00 W/m2
17:12 43.6 °F 27.6 °F 30.11 in Calm     53% 0.00 in 0.00 W/m2
17:17 44.2 °F 26.8 °F 30.10 in Calm     50% 0.00 in 0.00 W/m2
17:23 45.1 °F 26.6 °F 30.10 in Calm     48% 0.00 in 0.00 W/m2
17:28 46.4 °F 26.8 °F 30.10 in SSW 4.0 mph 4.0 mph 46% 0.00 in 0.00 W/m2
17:29 46.5 °F 27.4 °F 30.10 in SSW 4.0 mph 5.0 mph 47% 0.00 in 0.00 W/m2
17:30 46.6 °F 30.4 °F 30.10 in Calm   5.0 mph 53% 0.00 in 0.00 W/m2
17:32 46.6 °F 30.9 °F 30.10 in SSW 1.0 mph 5.0 mph 54% 0.00 in 0.00 W/m2
17:37 45.9 °F 31.5 °F 30.11 in SSW 3.0 mph 7.0 mph 57% 0.00 in 0.00 W/m2
17:52 47.7 °F 28.0 °F 30.09 in ESE 9.0 mph 11.0 mph 46% 0.00 in 0.00 W/m2
18:03 50.5 °F 28.3 °F 30.09 in Calm   8.0 mph 42% 0.00 in 0.00 W/m2
18:13 49.0 °F 31.2 °F 30.11 in Calm     50% 0.00 in 0.00 W/m2
18:18 48.0 °F 30.3 °F 30.11 in Calm     50% 0.00 in 0.00 W/m2
18:23 47.6 °F 29.4 °F 30.12 in Calm     49% 0.00 in 0.00 W/m2
18:28 47.5 °F 28.8 °F 30.12 in Calm     48% 0.00 in 0.00 W/m2
18:33 47.3 °F 30.6 °F 30.13 in Calm     52% 0.00 in 0.00 W/m2
18:39 47.1 °F 31.3 °F 30.14 in Calm     54% 0.00 in 0.00 W/m2
18:44 46.8 °F 31.5 °F 30.13 in Calm     55% 0.00 in 0.00 W/m2
18:54 45.6 °F 32.1 °F 30.13 in Calm     59% 0.00 in 0.00 W/m2
18:59 44.8 °F 32.2 °F 30.12 in Calm     61% 0.00 in 0.00 W/m2
19:04 44.4 °F 31.8 °F 30.13 in Calm     61% 0.00 in 0.00 W/m2
19:14 44.1 °F 31.9 °F 30.13 in Calm     62% 0.00 in 0.00 W/m2
19:19 44.0 °F 31.8 °F 30.13 in Calm     62% 0.00 in 0.00 W/m2
Chelsea Cove, Bountiful, UT
Compliments of Weather Underground - 1.25 mb